Newbury Park, CA

3:13 AM PST on January 27, 2015 (GMT -0800)
Camarillo | Change Station
CLOSE
Current Station
Airport
Location: Camarillo,
Elevation: 75 ft
Nearby Weather Stations

Elev 75 ft 34.21 °N, 119.09 °W | Updated 18 minutes ago

Overcast
Overcast
57 °F
Feels Like 57 °F
N
5
Wind Variable Wind from NE

Today
High -- | Low -- °F
--% Chance of Precip.
Yesterday
High -- | Low -- °F
Precip. -- in
6:56 AM 5:20 PM
First Quarter, 53% visible
Pressure 30.14 in
Visibility 10.0 miles
Clouds Overcast 8500 ft
Dew Point 53 °F
Humidity 87%
Rainfall 0.00 in
Snow Depth Not available.
UV 0 out of 12
Pollen 5.40 out of 12
Air Quality Not available.
Flu Activity Not available.
METAR KCMA 271055Z 04004KT 10SM OVC085 14/12 A3012 RMK AO2 SLP206 T01390117

More Conditions Fewer Conditions

Pressure 30.14 in
Visibility 10.0 miles
Clouds Overcast 8500 ft
Dew Point 53 °F
Humidity 87%
Rainfall 0.00 in
Snow Depth Not available.
UV 0 out of 12
Pollen 5.40 out of 12
Air Quality Not available.
Flu Activity Not available.
METAR KCMA 271055Z 04004KT 10SM OVC085 14/12 A3012 RMK AO2 SLP206 T01390117

More Conditions Fewer Conditions

10-Day Weather Forecast

Almanac

Astronomy

Jan. 27, 2015 Rise Set
Actual Time
Civil Twilight
Nautical Twilight
Astronomical Twilight
Moon
Length of Visible Light
Length of Day
Tomorrow will be .
, % of the Moon is Illuminated

Today's Extremes

State Highs State Lows

Community

WunderPhotos

Upload Photos

1,790,564 photos uploaded!

WunderBlogs® & News

Nearby

Air Quality

  Air Quality AQ Index Pollutant
Not available.

Snow Depth

Station Depth Elevation

Earthquake Activity

City Distance Mag. Time & Date
Minimum magnitude displayed is 2.5.

Coastal Water Temperatures

Place Temperature

Nearby Weather Stations